createdAt,value
2023-02-05T00:00:30.000Z,-0.4
2023-02-05T00:01:46.000Z,-0.4
2023-02-05T00:03:02.000Z,-0.4
2023-02-05T00:04:18.000Z,-0.4
2023-02-05T00:05:34.996Z,-0.4
2023-02-05T00:06:50.000Z,-0.3
2023-02-05T00:08:06.000Z,-0.3
2023-02-05T00:09:22.000Z,-0.3
2023-02-05T00:10:38.000Z,-0.4
2023-02-05T00:11:54.000Z,-0.4
2023-02-05T00:13:10.000Z,-0.4
2023-02-05T00:14:26.000Z,-0.4
2023-02-05T00:15:43.188Z,-0.4
2023-02-05T00:16:59.000Z,-0.4
2023-02-05T00:18:15.000Z,-0.4
2023-02-05T00:19:31.000Z,-0.4
2023-02-05T00:20:47.000Z,-0.4
2023-02-05T00:22:03.000Z,-0.3
2023-02-05T00:23:20.074Z,-0.3
2023-02-05T00:24:35.237Z,-0.3
2023-02-05T00:25:51.000Z,-0.3
2023-02-05T00:27:07.000Z,-0.3
2023-02-05T00:28:23.000Z,-0.4
2023-02-05T00:29:39.000Z,-0.4
2023-02-05T00:30:55.000Z,-0.4
2023-02-05T00:32:11.000Z,-0.4
2023-02-05T00:33:28.000Z,-0.4
2023-02-05T00:34:44.000Z,-0.4
2023-02-05T00:36:00.000Z,-0.5
2023-02-05T00:37:16.000Z,-0.5
2023-02-05T00:38:32.000Z,-0.5
2023-02-05T00:39:48.000Z,-0.5
2023-02-05T00:41:03.000Z,-0.5
2023-02-05T00:42:20.310Z,-0.5
2023-02-05T00:43:36.000Z,-0.6
2023-02-05T00:44:52.000Z,-0.6
2023-02-05T00:46:08.000Z,-0.6
2023-02-05T00:47:24.000Z,-0.6
2023-02-05T00:48:41.051Z,-0.6
2023-02-05T00:49:56.000Z,-0.6
2023-02-05T00:51:13.000Z,-0.6
2023-02-05T00:52:29.000Z,-0.6
2023-02-05T00:53:45.000Z,-0.6
2023-02-05T00:55:01.000Z,-0.6
2023-02-05T00:56:17.000Z,-0.6
2023-02-05T00:57:32.000Z,-0.6
2023-02-05T00:58:49.000Z,-0.6
2023-02-05T01:00:05.000Z,-0.6
2023-02-05T01:01:21.000Z,-0.6
2023-02-05T01:02:37.000Z,-0.6
2023-02-05T01:03:53.000Z,-0.6
2023-02-05T01:05:09.000Z,-0.6
2023-02-05T01:06:25.000Z,-0.6
2023-02-05T01:07:42.274Z,-0.6
2023-02-05T01:08:58.424Z,-0.6
2023-02-05T01:10:14.000Z,-0.6
2023-02-05T01:11:30.000Z,-0.6
2023-02-05T01:12:46.000Z,-0.6
2023-02-05T01:14:01.000Z,-0.6
2023-02-05T01:15:17.000Z,-0.6
2023-02-05T01:16:34.000Z,-0.6
2023-02-05T01:17:50.473Z,-0.6
2023-02-05T01:19:06.000Z,-0.6
2023-02-05T01:20:22.000Z,-0.6
2023-02-05T01:21:38.000Z,-0.6
2023-02-05T01:22:54.000Z,-0.6
2023-02-05T01:24:10.000Z,-0.6
2023-02-05T01:25:27.000Z,-0.6
2023-02-05T01:26:43.000Z,-0.6
2023-02-05T01:27:59.000Z,-0.7
2023-02-05T01:29:15.000Z,-0.7
2023-02-05T01:30:30.000Z,-0.7
2023-02-05T01:31:46.000Z,-0.7
2023-02-05T01:33:03.261Z,-0.7
2023-02-05T01:34:19.000Z,-0.7
2023-02-05T01:35:35.000Z,-0.7
2023-02-05T01:36:51.000Z,-0.7
2023-02-05T01:38:07.000Z,-0.7
2023-02-05T01:39:23.000Z,-0.7
2023-02-05T01:40:39.000Z,-0.7
2023-02-05T01:41:56.317Z,-0.7
2023-02-05T01:43:12.000Z,-0.6
2023-02-05T01:44:28.000Z,-0.6
2023-02-05T01:45:44.000Z,-0.6
2023-02-05T01:46:59.000Z,-0.6
2023-02-05T01:48:15.000Z,-0.6
2023-02-05T01:49:32.208Z,-0.5
2023-02-05T01:50:48.000Z,-0.5
2023-02-05T01:52:04.000Z,-0.5
2023-02-05T01:53:20.000Z,-0.4
2023-02-05T01:54:36.000Z,-0.4
2023-02-05T01:55:52.000Z,-0.4
2023-02-05T01:57:09.068Z,-0.3
2023-02-05T01:58:24.000Z,-0.3
2023-02-05T01:59:41.366Z,-0.3
2023-02-05T02:00:57.000Z,-0.3
2023-02-05T02:02:13.000Z,-0.3
2023-02-05T02:03:28.000Z,-0.2
2023-02-05T02:04:44.000Z,-0.2
2023-02-05T02:06:00.000Z,-0.2
2023-02-05T02:07:17.000Z,-0.2
2023-02-05T02:08:33.000Z,-0.2
2023-02-05T02:09:49.000Z,-0.2
2023-02-05T02:11:05.000Z,-0.2
2023-02-05T02:12:21.000Z,-0.3
2023-02-05T02:13:37.000Z,-0.2
2023-02-05T02:14:53.000Z,-0.2
2023-02-05T02:16:10.000Z,-0.2
2023-02-05T02:17:26.000Z,-0.2
2023-02-05T02:18:42.000Z,-0.2
2023-02-05T02:19:57.000Z,-0.2
2023-02-05T02:21:13.000Z,-0.1
2023-02-05T02:22:29.000Z,-0.1
2023-02-05T02:23:45.000Z,-0.1
2023-02-05T02:25:02.000Z,-0.1
2023-02-05T02:26:18.000Z,-0.1
2023-02-05T02:27:34.000Z,0
2023-02-05T02:28:50.000Z,0
2023-02-05T02:30:06.000Z,0
2023-02-05T02:31:22.000Z,0
2023-02-05T02:32:38.000Z,0
2023-02-05T02:33:55.374Z,0
2023-02-05T02:35:11.000Z,0
2023-02-05T02:36:26.000Z,0.1
2023-02-05T02:37:42.000Z,0.1
2023-02-05T02:38:58.000Z,0.1
2023-02-05T02:40:14.000Z,0.1
2023-02-05T02:41:31.000Z,0.1
2023-02-05T02:42:47.000Z,0.1
2023-02-05T02:44:03.000Z,0.1
2023-02-05T02:45:19.000Z,0.1
2023-02-05T02:46:35.000Z,0.1
2023-02-05T02:47:51.000Z,0.1
2023-02-05T02:49:07.000Z,0.1
2023-02-05T02:50:24.000Z,0.1
2023-02-05T02:51:40.000Z,0.1
2023-02-05T02:52:55.619Z,0.2
2023-02-05T02:54:11.000Z,0.2
2023-02-05T02:55:27.000Z,0.1
2023-02-05T02:56:43.000Z,0.2
2023-02-05T02:57:59.000Z,0.2
2023-02-05T02:59:16.000Z,0.1
2023-02-05T03:00:32.502Z,0.2
2023-02-05T03:01:48.000Z,0.2
2023-02-05T03:03:04.000Z,0.2
2023-02-05T03:04:20.000Z,0.2
2023-02-05T03:05:36.000Z,0.2
2023-02-05T03:06:53.000Z,0.2
2023-02-05T03:08:09.000Z,0.2
2023-02-05T03:09:24.000Z,0.2
2023-02-05T03:10:40.000Z,0.2
2023-02-05T03:11:56.000Z,0.2
2023-02-05T03:13:12.000Z,0.2
2023-02-05T03:14:29.134Z,0.2
2023-02-05T03:15:45.000Z,0.2
2023-02-05T03:17:00.000Z,0.2
2023-02-05T03:18:16.000Z,0.2
2023-02-05T03:19:32.000Z,0.2
2023-02-05T03:20:48.000Z,0.2
2023-02-05T03:22:04.000Z,0.2
2023-02-05T03:23:20.000Z,0.3
2023-02-05T03:24:37.000Z,0.3
2023-02-05T03:25:53.000Z,0.3
2023-02-05T03:27:09.000Z,0.3
2023-02-05T03:28:25.845Z,0.3
2023-02-05T03:29:41.000Z,0.3
2023-02-05T03:30:57.000Z,0.3
2023-02-05T03:32:13.000Z,0.3
2023-02-05T03:33:29.000Z,0.3
2023-02-05T03:34:45.000Z,0.3
2023-02-05T03:36:01.000Z,0.3
2023-02-05T03:37:17.823Z,0.3
2023-02-05T03:38:33.000Z,0.3
2023-02-05T03:39:49.000Z,0.3
2023-02-05T03:41:06.000Z,0.3
2023-02-05T03:42:22.000Z,0.3
2023-02-05T03:43:38.000Z,0.3
2023-02-05T03:44:54.000Z,0.3
2023-02-05T03:46:10.000Z,0.3
2023-02-05T03:47:26.000Z,0.3
2023-02-05T03:48:42.000Z,0.3
2023-02-05T03:49:58.000Z,0.3
2023-02-05T03:51:14.000Z,0.3
2023-02-05T03:52:30.000Z,0.3
2023-02-05T03:53:46.000Z,0.3
2023-02-05T03:55:02.000Z,0.3
2023-02-05T03:56:19.051Z,0.3
2023-02-05T03:57:34.000Z,0.3
2023-02-05T03:58:51.000Z,0.3
2023-02-05T04:00:07.000Z,0.3
2023-02-05T04:01:23.000Z,0.3
2023-02-05T04:02:39.000Z,0.3
2023-02-05T04:03:55.000Z,0.3
2023-02-05T04:05:11.000Z,0.3
2023-02-05T04:06:27.000Z,0.3
2023-02-05T04:07:43.000Z,0.4
2023-02-05T04:08:59.000Z,0.3
2023-02-05T04:10:15.689Z,0.4
2023-02-05T04:11:31.000Z,0.4
2023-02-05T04:12:47.000Z,0.4
2023-02-05T04:14:03.000Z,0.4
2023-02-05T04:15:20.000Z,0.4
2023-02-05T04:16:36.000Z,0.4
2023-02-05T04:17:52.000Z,0.4
2023-02-05T04:19:08.000Z,0.4
2023-02-05T04:20:24.000Z,0.4
2023-02-05T04:21:40.000Z,0.4
2023-02-05T04:22:55.000Z,0.4
2023-02-05T04:24:12.000Z,0.4
2023-02-05T04:25:28.470Z,0.4
2023-02-05T04:26:44.000Z,0.4
2023-02-05T04:28:00.765Z,0.4
2023-02-05T04:29:16.000Z,0.4
2023-02-05T04:30:32.000Z,0.4
2023-02-05T04:31:49.246Z,0.4
2023-02-05T04:33:05.356Z,0.4
2023-02-05T04:34:21.000Z,0.4
2023-02-05T04:35:37.000Z,0.4
2023-02-05T04:36:53.000Z,0.4
2023-02-05T04:38:09.000Z,0.4
2023-02-05T04:39:24.000Z,0.4
2023-02-05T04:40:41.255Z,0.4
2023-02-05T04:41:57.000Z,0.5
2023-02-05T04:43:13.000Z,0.5
2023-02-05T04:44:29.694Z,0.5
2023-02-05T04:45:45.000Z,0.5
2023-02-05T04:47:01.000Z,0.5
2023-02-05T04:48:17.000Z,0.5
2023-02-05T04:49:34.000Z,0.5
2023-02-05T04:50:50.000Z,0.5
2023-02-05T04:52:06.000Z,0.5
2023-02-05T04:53:22.000Z,0.5
2023-02-05T04:54:38.000Z,0.6
2023-02-05T04:55:53.000Z,0.6
2023-02-05T04:57:09.000Z,0.6
2023-02-05T04:58:26.000Z,0.6
2023-02-05T04:59:42.000Z,0.6
2023-02-05T05:00:58.000Z,0.6
2023-02-05T05:02:14.000Z,0.6
2023-02-05T05:03:30.000Z,0.6
2023-02-05T05:04:46.000Z,0.6
2023-02-05T05:06:02.000Z,0.6
2023-02-05T05:07:19.000Z,0.6
2023-02-05T05:08:35.531Z,0.6
2023-02-05T05:09:51.653Z,0.6
2023-02-05T05:11:07.000Z,0.6
2023-02-05T05:12:22.000Z,0.6
2023-02-05T05:13:38.000Z,0.7
2023-02-05T05:14:55.000Z,0.7
2023-02-05T05:16:11.000Z,0.7
2023-02-05T05:17:27.000Z,0.7
2023-02-05T05:18:43.000Z,0.7
2023-02-05T05:19:59.000Z,0.7
2023-02-05T05:21:15.000Z,0.7
2023-02-05T05:22:31.000Z,0.7
2023-02-05T05:23:48.000Z,0.7
2023-02-05T05:25:04.000Z,0.7
2023-02-05T05:26:20.000Z,0.7
2023-02-05T05:27:36.000Z,0.7
2023-02-05T05:28:51.000Z,0.7
2023-02-05T05:30:07.000Z,0.7
2023-02-05T05:31:23.000Z,0.7
2023-02-05T05:32:40.000Z,0.7
2023-02-05T05:33:56.000Z,0.7
2023-02-05T05:35:12.000Z,0.7
2023-02-05T05:36:28.776Z,0.7
2023-02-05T05:37:44.000Z,0.7
2023-02-05T05:39:00.000Z,0.7
2023-02-05T05:40:17.214Z,0.7
2023-02-05T05:41:33.000Z,0.7
2023-02-05T05:42:49.000Z,0.7
2023-02-05T05:44:05.000Z,0.7
2023-02-05T05:45:20.822Z,0.7
2023-02-05T05:46:36.967Z,0.7
2023-02-05T05:47:52.000Z,0.7
2023-02-05T05:49:09.000Z,0.7
2023-02-05T05:50:25.000Z,0.7
2023-02-05T05:51:41.000Z,0.7
2023-02-05T05:52:57.000Z,0.7
2023-02-05T05:54:13.000Z,0.7
2023-02-05T05:55:29.000Z,0.7
2023-02-05T05:56:45.000Z,0.7
2023-02-05T05:58:02.000Z,0.7
2023-02-05T05:59:18.000Z,0.7
2023-02-05T06:00:34.000Z,0.7
2023-02-05T06:01:49.000Z,0.7
2023-02-05T06:03:05.000Z,0.7
2023-02-05T06:04:21.000Z,0.8
2023-02-05T06:05:37.000Z,0.7
2023-02-05T06:06:54.000Z,0.8
2023-02-05T06:08:10.000Z,0.8
2023-02-05T06:09:26.000Z,0.8
2023-02-05T06:10:42.000Z,0.8
2023-02-05T06:11:58.000Z,0.8
2023-02-05T06:13:14.000Z,0.8
2023-02-05T06:14:30.000Z,0.8
2023-02-05T06:15:47.000Z,0.8
2023-02-05T06:17:03.000Z,0.8
2023-02-05T06:18:18.000Z,0.8
2023-02-05T06:19:34.000Z,0.8
2023-02-05T06:20:50.000Z,0.8
2023-02-05T06:22:06.000Z,0.8
2023-02-05T06:23:23.266Z,0.8
2023-02-05T06:24:39.000Z,0.8
2023-02-05T06:25:55.000Z,0.8
2023-02-05T06:27:11.000Z,0.8
2023-02-05T06:28:27.000Z,0.8
2023-02-05T06:29:43.000Z,0.8
2023-02-05T06:30:59.000Z,0.8
2023-02-05T06:32:16.000Z,0.8
2023-02-05T06:33:32.000Z,0.8
2023-02-05T06:34:47.612Z,0.8
2023-02-05T06:36:03.000Z,0.8
2023-02-05T06:37:19.000Z,0.8
2023-02-05T06:38:35.000Z,0.8
2023-02-05T06:39:51.000Z,0.8
2023-02-05T06:41:08.000Z,0.9
2023-02-05T06:42:24.000Z,0.9
2023-02-05T06:43:40.000Z,0.9
2023-02-05T06:44:56.000Z,0.9
2023-02-05T06:46:12.000Z,0.9
2023-02-05T06:47:28.000Z,0.9
2023-02-05T06:48:45.000Z,0.9
2023-02-05T06:50:01.000Z,0.9
2023-02-05T06:51:16.000Z,0.9
2023-02-05T06:52:32.000Z,0.9
2023-02-05T06:53:48.831Z,0.9
2023-02-05T06:55:04.000Z,0.9
2023-02-05T06:56:20.000Z,0.9
2023-02-05T06:57:37.000Z,1
2023-02-05T06:58:53.000Z,1
2023-02-05T07:00:09.000Z,1
2023-02-05T07:01:25.000Z,1
2023-02-05T07:02:41.000Z,1
2023-02-05T07:03:57.000Z,1
2023-02-05T07:05:13.000Z,1
2023-02-05T07:06:30.000Z,1
2023-02-05T07:07:45.000Z,1
2023-02-05T07:09:01.632Z,1
2023-02-05T07:10:17.000Z,1
2023-02-05T07:11:33.000Z,1
2023-02-05T07:12:49.000Z,1
2023-02-05T07:14:05.000Z,1
2023-02-05T07:15:22.000Z,1
2023-02-05T07:16:38.000Z,1
2023-02-05T07:17:54.000Z,1
2023-02-05T07:19:10.000Z,1
2023-02-05T07:20:26.000Z,1
2023-02-05T07:21:42.000Z,1
2023-02-05T07:22:59.000Z,1
2023-02-05T07:24:14.000Z,1
2023-02-05T07:25:30.000Z,1.1
2023-02-05T07:26:46.690Z,1.1
2023-02-05T07:28:02.854Z,1.1
2023-02-05T07:29:18.000Z,1.1
2023-02-05T07:30:34.000Z,1.1
2023-02-05T07:31:50.000Z,1.1
2023-02-05T07:33:06.000Z,1.1
2023-02-05T07:34:22.000Z,1.1
2023-02-05T07:35:38.000Z,1.1
2023-02-05T07:36:54.000Z,1.1
2023-02-05T07:38:10.000Z,1.2
2023-02-05T07:39:26.000Z,1.2
2023-02-05T07:40:43.000Z,1.2
2023-02-05T07:41:59.000Z,1.2
2023-02-05T07:43:15.000Z,1.2
2023-02-05T07:44:31.000Z,1.2
2023-02-05T07:45:47.000Z,1.2
2023-02-05T07:47:04.079Z,1.2
2023-02-05T07:48:18.000Z,1.2
2023-02-05T07:49:35.384Z,1.2
2023-02-05T07:50:51.000Z,1.2
2023-02-05T07:52:07.000Z,1.2
2023-02-05T07:53:23.000Z,1.2
2023-02-05T07:54:39.000Z,1.2
2023-02-05T07:55:55.000Z,1.2
2023-02-05T07:57:12.266Z,1.2
2023-02-05T07:58:28.000Z,1.2
2023-02-05T07:59:44.000Z,1.2
2023-02-05T08:01:00.000Z,1.2
2023-02-05T08:02:16.000Z,1.2
2023-02-05T08:03:32.000Z,1.2
2023-02-05T08:04:48.160Z,1.2
2023-02-05T08:06:04.000Z,1.2
2023-02-05T08:07:20.000Z,1.2
2023-02-05T08:08:36.000Z,1.2
2023-02-05T08:09:52.000Z,1.2
2023-02-05T08:11:08.000Z,1.2
2023-02-05T08:12:24.000Z,1.2
2023-02-05T08:13:40.000Z,1.2
2023-02-05T08:14:57.000Z,1.2
2023-02-05T08:16:13.000Z,1.2
2023-02-05T08:17:29.000Z,1.2
2023-02-05T08:18:45.000Z,1.2
2023-02-05T08:20:01.000Z,1.2
2023-02-05T08:21:16.000Z,1.2
2023-02-05T08:22:32.000Z,1.2
2023-02-05T08:23:49.000Z,1.2
2023-02-05T08:25:05.000Z,1.2
2023-02-05T08:26:21.000Z,1.2
2023-02-05T08:27:37.000Z,1.2
2023-02-05T08:28:53.000Z,1.2
2023-02-05T08:30:10.094Z,1.2
2023-02-05T08:31:26.000Z,1.2
2023-02-05T08:32:42.000Z,1.2
2023-02-05T08:33:58.000Z,1.2
2023-02-05T08:35:14.000Z,1.2
2023-02-05T08:36:30.000Z,1.2
2023-02-05T08:37:45.000Z,1.2
2023-02-05T08:39:01.000Z,1.2
2023-02-05T08:40:18.284Z,1.2
2023-02-05T08:41:34.000Z,1.3
2023-02-05T08:42:50.000Z,1.3
2023-02-05T08:44:06.000Z,1.3
2023-02-05T08:45:22.000Z,1.4
2023-02-05T08:46:38.000Z,1.4
2023-02-05T08:47:54.000Z,1.4
2023-02-05T08:49:11.000Z,1.4
2023-02-05T08:50:27.000Z,1.4
2023-02-05T08:51:43.000Z,1.5
2023-02-05T08:52:59.000Z,1.5
2023-02-05T08:54:14.000Z,1.5
2023-02-05T08:55:30.000Z,1.5
2023-02-05T08:56:46.000Z,1.5
2023-02-05T08:58:03.000Z,1.5
2023-02-05T08:59:19.000Z,1.5
2023-02-05T09:00:35.000Z,1.5
2023-02-05T09:01:51.789Z,1.5
2023-02-05T09:03:07.000Z,1.5
2023-02-05T09:04:23.000Z,1.5
2023-02-05T09:05:39.000Z,1.6
2023-02-05T09:06:56.000Z,1.6
2023-02-05T09:08:12.000Z,1.6
2023-02-05T09:09:28.000Z,1.6
2023-02-05T09:10:43.000Z,1.6
2023-02-05T09:11:59.000Z,1.6
2023-02-05T09:13:15.000Z,1.6
2023-02-05T09:14:32.244Z,1.6
2023-02-05T09:15:48.000Z,1.6
2023-02-05T09:17:04.000Z,1.6
2023-02-05T09:18:20.000Z,1.6
2023-02-05T09:19:36.000Z,1.6
2023-02-05T09:20:52.000Z,1.6
2023-02-05T09:22:08.000Z,1.5
2023-02-05T09:23:25.259Z,1.5
2023-02-05T09:24:41.000Z,1.5
2023-02-05T09:25:57.000Z,1.5
2023-02-05T09:27:12.000Z,1.5
2023-02-05T09:28:28.000Z,1.5
2023-02-05T09:29:44.000Z,1.5
2023-02-05T09:31:00.000Z,1.5
2023-02-05T09:32:17.293Z,1.5
2023-02-05T09:33:33.000Z,1.5
2023-02-05T09:34:49.000Z,1.6
2023-02-05T09:36:06.000Z,1.6
2023-02-05T09:37:21.880Z,1.6
2023-02-05T09:38:37.000Z,1.6
2023-02-05T09:39:53.000Z,1.6
2023-02-05T09:41:10.000Z,1.5
2023-02-05T09:42:26.000Z,1.5
2023-02-05T09:43:41.000Z,1.5
2023-02-05T09:44:57.000Z,1.5
2023-02-05T09:46:13.000Z,1.5
2023-02-05T09:47:29.000Z,1.5
2023-02-05T09:48:45.000Z,1.5
2023-02-05T09:50:02.000Z,1.5
2023-02-05T09:51:18.503Z,1.5
2023-02-05T09:52:34.647Z,1.5
2023-02-05T09:53:50.000Z,1.5
2023-02-05T09:55:06.000Z,1.5
2023-02-05T09:56:22.000Z,1.5
2023-02-05T09:57:39.000Z,1.5
2023-02-05T09:58:55.000Z,1.5
2023-02-05T10:00:10.000Z,1.5
2023-02-05T10:01:26.000Z,1.5
2023-02-05T10:02:42.000Z,1.6
2023-02-05T10:03:58.000Z,1.5
2023-02-05T10:05:14.000Z,1.5
2023-02-05T10:06:31.272Z,1.5
2023-02-05T10:07:47.414Z,1.5
2023-02-05T10:09:03.000Z,1.5
2023-02-05T10:10:19.000Z,1.5
2023-02-05T10:11:35.000Z,1.5
2023-02-05T10:12:51.000Z,1.6
2023-02-05T10:14:08.143Z,1.6
2023-02-05T10:15:24.000Z,1.6
2023-02-05T10:16:39.000Z,1.6
2023-02-05T10:17:55.000Z,1.7
2023-02-05T10:19:11.000Z,1.7
2023-02-05T10:20:27.000Z,1.7
2023-02-05T10:21:43.000Z,1.7
2023-02-05T10:22:59.000Z,1.7
2023-02-05T10:24:16.000Z,1.7
2023-02-05T10:25:32.000Z,1.7
2023-02-05T10:26:48.000Z,1.7
2023-02-05T10:28:04.000Z,1.7
2023-02-05T10:29:20.910Z,1.7
2023-02-05T10:30:36.000Z,1.7
2023-02-05T10:31:52.000Z,1.7
2023-02-05T10:33:08.000Z,1.7
2023-02-05T10:34:24.000Z,1.7
2023-02-05T10:35:40.000Z,1.7
2023-02-05T10:36:56.000Z,1.7
2023-02-05T10:38:12.000Z,1.7
2023-02-05T10:39:28.000Z,1.7
2023-02-05T10:40:45.000Z,1.7
2023-02-05T10:42:01.000Z,1.7
2023-02-05T10:43:17.000Z,1.7
2023-02-05T10:44:33.685Z,1.7
2023-02-05T10:45:49.000Z,1.7
2023-02-05T10:47:05.000Z,1.6
2023-02-05T10:48:21.000Z,1.6
2023-02-05T10:49:37.000Z,1.6
2023-02-05T10:50:53.000Z,1.6
2023-02-05T10:52:09.000Z,1.6
2023-02-05T10:53:25.000Z,1.6
2023-02-05T10:54:41.000Z,1.6
2023-02-05T10:55:57.000Z,1.6
2023-02-05T10:57:13.000Z,1.6
2023-02-05T10:58:30.000Z,1.6
2023-02-05T10:59:46.000Z,1.6
2023-02-05T11:01:02.000Z,1.6
2023-02-05T11:02:18.000Z,1.6
2023-02-05T11:03:34.880Z,1.7
2023-02-05T11:04:50.000Z,1.7
2023-02-05T11:06:05.000Z,1.7
2023-02-05T11:07:22.000Z,1.7
2023-02-05T11:08:38.000Z,1.7
2023-02-05T11:09:54.000Z,1.7
2023-02-05T11:11:10.000Z,1.7
2023-02-05T11:12:26.000Z,1.7
2023-02-05T11:13:42.000Z,1.7
2023-02-05T11:14:58.000Z,1.7
2023-02-05T11:16:15.000Z,1.7
2023-02-05T11:17:31.513Z,1.7
2023-02-05T11:18:47.000Z,1.7
2023-02-05T11:20:03.000Z,1.7
2023-02-05T11:21:19.000Z,1.7
2023-02-05T11:22:34.000Z,1.7
2023-02-05T11:23:51.000Z,1.8
2023-02-05T11:25:07.000Z,1.8
2023-02-05T11:26:23.540Z,1.8
2023-02-05T11:27:39.686Z,1.8
2023-02-05T11:28:55.000Z,1.8
2023-02-05T11:30:11.981Z,1.8
2023-02-05T11:31:27.000Z,1.8
2023-02-05T11:32:44.000Z,1.8
2023-02-05T11:34:00.000Z,1.8
2023-02-05T11:35:16.000Z,1.8
2023-02-05T11:36:32.000Z,1.8
2023-02-05T11:37:48.860Z,1.9
2023-02-05T11:39:03.000Z,1.9
2023-02-05T11:40:19.000Z,1.9
2023-02-05T11:41:36.000Z,1.9
2023-02-05T11:42:52.000Z,2
2023-02-05T11:44:08.000Z,2
2023-02-05T11:45:24.000Z,2.1
2023-02-05T11:46:39.909Z,2.1
2023-02-05T11:47:55.000Z,2.2
2023-02-05T11:49:11.000Z,2.2
2023-02-05T11:50:28.358Z,2.2
2023-02-05T11:51:44.496Z,2.3
2023-02-05T11:53:00.000Z,2.3
2023-02-05T11:54:16.000Z,2.3
2023-02-05T11:55:32.000Z,2.3
2023-02-05T11:56:48.000Z,2.4
2023-02-05T11:58:04.000Z,2.4
2023-02-05T11:59:21.000Z,2.5
2023-02-05T12:00:37.000Z,2.5
2023-02-05T12:01:53.000Z,2.6
2023-02-05T12:03:08.000Z,2.7
2023-02-05T12:04:24.000Z,2.7
2023-02-05T12:05:40.000Z,2.8
2023-02-05T12:06:57.000Z,2.9
2023-02-05T12:08:13.000Z,3
2023-02-05T12:09:29.549Z,3.1
2023-02-05T12:10:45.000Z,3.1
2023-02-05T12:12:01.851Z,3.1
2023-02-05T12:13:17.000Z,3.1
2023-02-05T12:14:34.132Z,3.1
2023-02-05T12:15:50.000Z,3.1
2023-02-05T12:17:06.423Z,3.1
2023-02-05T12:18:22.000Z,3.1
2023-02-05T12:19:37.000Z,3.1
2023-02-05T12:20:53.887Z,3.2
2023-02-05T12:22:09.000Z,3.2
2023-02-05T12:23:25.000Z,3.2
2023-02-05T12:24:42.331Z,3.2
2023-02-05T12:25:58.457Z,3.2
2023-02-05T12:27:14.000Z,3.2
2023-02-05T12:28:30.000Z,3.2
2023-02-05T12:29:46.000Z,3.1
2023-02-05T12:31:02.000Z,3.1
2023-02-05T12:32:18.000Z,3.1
2023-02-05T12:33:35.000Z,3
2023-02-05T12:34:51.000Z,3.1
2023-02-05T12:36:06.000Z,3.1
2023-02-05T12:37:22.000Z,3.1
2023-02-05T12:38:38.000Z,3.1
2023-02-05T12:39:54.000Z,3.2
2023-02-05T12:41:10.000Z,3.2
2023-02-05T12:42:27.382Z,3.2
2023-02-05T12:43:43.000Z,3.2
2023-02-05T12:44:59.000Z,3.2
2023-02-05T12:46:15.000Z,3.2
2023-02-05T12:47:31.000Z,3.2
2023-02-05T12:48:48.097Z,3.2
2023-02-05T12:50:04.000Z,3.2
2023-02-05T12:51:20.000Z,3.2
2023-02-05T12:52:35.000Z,3.2
2023-02-05T12:53:51.698Z,3.2
2023-02-05T12:55:07.000Z,3.2
2023-02-05T12:56:23.000Z,3.2
2023-02-05T12:57:39.000Z,3.2
2023-02-05T12:58:56.000Z,3.2
2023-02-05T13:00:12.000Z,3.3
2023-02-05T13:01:28.000Z,3.3
2023-02-05T13:02:44.000Z,3.3
2023-02-05T13:04:00.000Z,3.3
2023-02-05T13:05:16.000Z,3.3
2023-02-05T13:06:32.000Z,3.3
2023-02-05T13:07:49.000Z,3.3
2023-02-05T13:09:04.000Z,3.4
2023-02-05T13:10:20.000Z,3.4
2023-02-05T13:11:36.000Z,3.4
2023-02-05T13:12:52.898Z,3.4
2023-02-05T13:14:08.000Z,3.4
2023-02-05T13:15:24.000Z,3.4
2023-02-05T13:16:41.000Z,3.4
2023-02-05T13:17:57.000Z,3.4
2023-02-05T13:19:13.000Z,3.4
2023-02-05T13:20:29.000Z,3.4
2023-02-05T13:21:45.000Z,3.4
2023-02-05T13:23:01.000Z,3.4
2023-02-05T13:24:17.000Z,3.4
2023-02-05T13:25:33.000Z,3.4
2023-02-05T13:26:49.000Z,3.4
2023-02-05T13:28:05.000Z,3.3
2023-02-05T13:29:21.810Z,3.3
2023-02-05T13:30:37.000Z,3.3
2023-02-05T13:31:53.000Z,3.3
2023-02-05T13:33:10.000Z,3.3
2023-02-05T13:34:26.000Z,3.3
2023-02-05T13:35:42.000Z,3.4
2023-02-05T13:36:58.000Z,3.4
2023-02-05T13:38:14.000Z,3.4
2023-02-05T13:39:30.000Z,3.4
2023-02-05T13:40:46.000Z,3.4
2023-02-05T13:42:02.000Z,3.4
2023-02-05T13:43:18.000Z,3.4
2023-02-05T13:44:34.000Z,3.5
2023-02-05T13:45:50.000Z,3.5
2023-02-05T13:47:06.000Z,3.5
2023-02-05T13:48:22.000Z,3.6
2023-02-05T13:49:38.000Z,3.6
2023-02-05T13:50:55.000Z,3.7
2023-02-05T13:52:11.000Z,3.7
2023-02-05T13:53:27.000Z,3.7
2023-02-05T13:54:43.000Z,3.8
2023-02-05T13:55:59.000Z,3.8
2023-02-05T13:57:15.000Z,3.8
2023-02-05T13:58:30.000Z,3.7
2023-02-05T13:59:47.000Z,3.7
2023-02-05T14:01:03.000Z,3.7
2023-02-05T14:02:19.000Z,3.6
2023-02-05T14:03:35.000Z,3.6
2023-02-05T14:04:51.000Z,3.5
2023-02-05T14:06:07.000Z,3.5
2023-02-05T14:07:23.000Z,3.5
2023-02-05T14:08:40.000Z,3.5
2023-02-05T14:09:56.000Z,3.5
2023-02-05T14:11:12.000Z,3.5
2023-02-05T14:12:28.000Z,3.6
2023-02-05T14:13:44.000Z,3.6
2023-02-05T14:14:59.000Z,3.6
2023-02-05T14:16:16.000Z,3.6
2023-02-05T14:17:32.395Z,3.6
2023-02-05T14:18:48.000Z,3.6
2023-02-05T14:20:04.000Z,3.7
2023-02-05T14:21:20.000Z,3.7
2023-02-05T14:22:36.000Z,3.7
2023-02-05T14:23:52.000Z,3.7
2023-02-05T14:25:09.000Z,3.7
2023-02-05T14:26:25.000Z,3.7
2023-02-05T14:27:41.000Z,3.6
2023-02-05T14:28:57.000Z,3.6
2023-02-05T14:30:13.000Z,3.6
2023-02-05T14:31:28.000Z,3.5
2023-02-05T14:32:44.000Z,3.5
2023-02-05T14:34:01.000Z,3.5
2023-02-05T14:35:17.000Z,3.5
2023-02-05T14:36:33.000Z,3.5
2023-02-05T14:37:49.000Z,3.5
2023-02-05T14:39:05.000Z,3.5
2023-02-05T14:40:21.000Z,3.4
2023-02-05T14:41:37.000Z,3.4
2023-02-05T14:42:54.000Z,3.4
2023-02-05T14:44:10.000Z,3.3
2023-02-05T14:45:26.000Z,3.3
2023-02-05T14:46:42.000Z,3.2
2023-02-05T14:47:57.920Z,3.2
2023-02-05T14:49:13.000Z,3.1
2023-02-05T14:50:29.000Z,3.1
2023-02-05T14:51:46.000Z,3.1
2023-02-05T14:53:02.000Z,3.1
2023-02-05T14:54:18.000Z,3.1
2023-02-05T14:55:34.000Z,3
2023-02-05T14:56:50.000Z,3
2023-02-05T14:58:06.000Z,3
2023-02-05T14:59:23.232Z,3
2023-02-05T15:00:39.000Z,2.9
2023-02-05T15:01:55.000Z,2.9
2023-02-05T15:03:11.000Z,2.9
2023-02-05T15:04:26.000Z,2.8
2023-02-05T15:05:42.000Z,2.8
2023-02-05T15:06:58.000Z,2.8
2023-02-05T15:08:15.000Z,2.7
2023-02-05T15:09:31.000Z,2.7
2023-02-05T15:10:47.000Z,2.7
2023-02-05T15:12:03.000Z,2.7
2023-02-05T15:13:19.867Z,2.6
2023-02-05T15:14:35.000Z,2.6
2023-02-05T15:15:51.000Z,2.6
2023-02-05T15:17:08.000Z,2.6
2023-02-05T15:18:24.000Z,2.6
2023-02-05T15:19:40.000Z,2.6
2023-02-05T15:20:55.746Z,2.5
2023-02-05T15:22:11.888Z,2.5
2023-02-05T15:23:27.000Z,2.5
2023-02-05T15:24:43.000Z,2.5
2023-02-05T15:26:00.334Z,2.5
2023-02-05T15:27:16.000Z,2.5
2023-02-05T15:28:32.000Z,2.4
2023-02-05T15:29:48.000Z,2.4
2023-02-05T15:31:04.000Z,2.4
2023-02-05T15:32:20.000Z,2.4
2023-02-05T15:33:36.000Z,2.3
2023-02-05T15:34:53.000Z,2.3
2023-02-05T15:36:09.000Z,2.3
2023-02-05T15:37:24.000Z,2.3
2023-02-05T15:38:40.000Z,2.2
2023-02-05T15:39:56.000Z,2.2
2023-02-05T15:41:13.095Z,2.2
2023-02-05T15:42:29.000Z,2.3
2023-02-05T15:43:45.000Z,2.3
2023-02-05T15:45:01.000Z,2.3
2023-02-05T15:46:17.000Z,2.3
2023-02-05T15:47:33.000Z,2.3
2023-02-05T15:48:49.000Z,2.4
2023-02-05T15:50:06.113Z,2.4
2023-02-05T15:51:22.000Z,2.4
2023-02-05T15:52:38.000Z,2.4
2023-02-05T15:53:53.000Z,2.4
2023-02-05T15:55:09.000Z,2.4
2023-02-05T15:56:25.000Z,2.3
2023-02-05T15:57:41.000Z,2.3
2023-02-05T15:58:57.000Z,2.3
2023-02-05T16:00:14.000Z,2.2
2023-02-05T16:01:29.000Z,2.2
2023-02-05T16:02:45.000Z,2.2
2023-02-05T16:04:01.760Z,2.1
2023-02-05T16:05:17.000Z,2.1
2023-02-05T16:06:33.000Z,2
2023-02-05T16:07:49.000Z,2
2023-02-05T16:09:06.000Z,2
2023-02-05T16:10:22.000Z,1.9
2023-02-05T16:11:38.000Z,1.9
2023-02-05T16:12:54.000Z,1.8
2023-02-05T16:14:10.000Z,1.8
2023-02-05T16:15:26.000Z,1.8
2023-02-05T16:16:43.214Z,1.7
2023-02-05T16:17:58.000Z,1.7
2023-02-05T16:19:14.537Z,1.6
2023-02-05T16:20:30.000Z,1.6
2023-02-05T16:21:46.000Z,1.6
2023-02-05T16:23:02.000Z,1.5
2023-02-05T16:24:19.101Z,1.5
2023-02-05T16:25:35.000Z,1.5
2023-02-05T16:26:51.000Z,1.5
2023-02-05T16:28:07.000Z,1.4
2023-02-05T16:29:23.000Z,1.4
2023-02-05T16:30:39.000Z,1.4
2023-02-05T16:31:55.000Z,1.3
2023-02-05T16:33:11.000Z,1.3
2023-02-05T16:34:27.289Z,1.3
2023-02-05T16:35:43.000Z,1.3
2023-02-05T16:36:59.000Z,1.2
2023-02-05T16:38:15.000Z,1.2
2023-02-05T16:39:31.000Z,1.2
2023-02-05T16:40:47.000Z,1.1
2023-02-05T16:42:03.000Z,1.1
2023-02-05T16:43:20.000Z,1.1
2023-02-05T16:44:36.000Z,1
2023-02-05T16:45:52.000Z,1
2023-02-05T16:47:08.000Z,1
2023-02-05T16:48:24.000Z,1
2023-02-05T16:49:40.000Z,0.9
2023-02-05T16:50:55.000Z,0.9
2023-02-05T16:52:12.000Z,0.9
2023-02-05T16:53:28.486Z,0.8
2023-02-05T16:54:44.000Z,0.8
2023-02-05T16:56:00.000Z,0.8
2023-02-05T16:57:16.000Z,0.8
2023-02-05T16:58:32.000Z,0.8
2023-02-05T16:59:49.217Z,0.8
2023-02-05T17:01:05.000Z,0.8
2023-02-05T17:02:21.000Z,0.7
2023-02-05T17:03:37.000Z,0.7
2023-02-05T17:04:53.000Z,0.7
2023-02-05T17:06:09.000Z,0.7
2023-02-05T17:07:24.000Z,0.7
2023-02-05T17:08:41.000Z,0.7
2023-02-05T17:09:57.000Z,0.6
2023-02-05T17:11:13.000Z,0.6
2023-02-05T17:12:29.000Z,0.6
2023-02-05T17:13:45.000Z,0.6
2023-02-05T17:15:01.000Z,0.6
2023-02-05T17:16:17.000Z,0.5
2023-02-05T17:17:34.289Z,0.5
2023-02-05T17:18:50.000Z,0.5
2023-02-05T17:20:06.000Z,0.5
2023-02-05T17:21:22.000Z,0.5
2023-02-05T17:22:38.000Z,0.4
2023-02-05T17:23:53.000Z,0.4
2023-02-05T17:25:09.000Z,0.4
2023-02-05T17:26:26.000Z,0.4